Pagrindinis puslapis
METAR-TAF:

METAR-TAF

Oro uostai :

Reyes, Bolivija

platuma: 14-19S, ilguma: 067-23W, Aukštis: 140 m

Dabartinis oras

Ataskaita buvo paskelbta 6 valandos ir 35 minutes, ne 22:00 UTC
Ramus vėjas
Temperatūra 33°C
Drėgmė 59%
Slėgis 1009 hPa
Matomumas 10 km arba daugiau

METAR: SLRY 282200Z 00000KT 9999 NSC 33/24 Q1009

Laikas: 00:35 (04:35 UTC)


TAF: trūkstamas

Orai ataskaitas ir orų prognozės (METAR, TAF).

turimą stotys yra geltonos ir raudonos taškus žemėlapyje.

Perkelti pele per norėdami pamatyti stoties vardą.

Tada spustelėkite, norėdami matyti oro stebėjimo ir prognozės.

Norėdami pakeisti žemėlapį: spustelėkite ant žalios mygtukų su juodo kryžiaus žemyn,; žalią mygtuką su brūkšneliu, jei norite nutolinti; arba žalių rodyklių gretimoms žemėlapius.


METAR-TAF: